sensor_id;sensor_type;location;lat;lon;timestamp;P1;durP1;ratioP1;P2;durP2;ratioP2
67715;SDS011;54508;43.238;25.306;2024-01-07T00:01:14;5.55;;;3.50;;
67715;SDS011;54508;43.238;25.306;2024-01-07T00:03:40;4.00;;;3.60;;
67715;SDS011;54508;43.238;25.306;2024-01-07T00:06:06;3.65;;;2.63;;
67715;SDS011;54508;43.238;25.306;2024-01-07T00:08:31;3.85;;;2.92;;
67715;SDS011;54508;43.238;25.306;2024-01-07T00:10:57;3.37;;;2.67;;
67715;SDS011;54508;43.238;25.306;2024-01-07T00:13:22;4.37;;;3.17;;
67715;SDS011;54508;43.238;25.306;2024-01-07T00:15:47;4.83;;;3.30;;
67715;SDS011;54508;43.238;25.306;2024-01-07T00:18:13;3.80;;;3.03;;
67715;SDS011;54508;43.238;25.306;2024-01-07T00:20:38;3.83;;;2.92;;
67715;SDS011;54508;43.238;25.306;2024-01-07T00:23:04;3.90;;;2.90;;
67715;SDS011;54508;43.238;25.306;2024-01-07T00:25:29;4.50;;;3.20;;
67715;SDS011;54508;43.238;25.306;2024-01-07T00:27:54;4.33;;;3.10;;
67715;SDS011;54508;43.238;25.306;2024-01-07T00:30:20;5.07;;;2.80;;
67715;SDS011;54508;43.238;25.306;2024-01-07T00:32:46;3.47;;;2.73;;
67715;SDS011;54508;43.238;25.306;2024-01-07T00:35:11;3.00;;;2.70;;
67715;SDS011;54508;43.238;25.306;2024-01-07T00:37:37;3.28;;;2.30;;
67715;SDS011;54508;43.238;25.306;2024-01-07T00:40:03;3.93;;;3.17;;
67715;SDS011;54508;43.238;25.306;2024-01-07T00:42:29;3.55;;;2.45;;
67715;SDS011;54508;43.238;25.306;2024-01-07T00:44:54;5.17;;;2.63;;
67715;SDS011;54508;43.238;25.306;2024-01-07T00:47:20;3.73;;;3.00;;
67715;SDS011;54508;43.238;25.306;2024-01-07T00:49:45;4.70;;;2.70;;
67715;SDS011;54508;43.238;25.306;2024-01-07T00:52:11;2.92;;;2.50;;
67715;SDS011;54508;43.238;25.306;2024-01-07T00:54:36;3.30;;;2.83;;
67715;SDS011;54508;43.238;25.306;2024-01-07T00:57:02;4.17;;;2.97;;
67715;SDS011;54508;43.238;25.306;2024-01-07T00:59:30;3.63;;;2.70;;
67715;SDS011;54508;43.238;25.306;2024-01-07T01:01:56;3.67;;;2.90;;
67715;SDS011;54508;43.238;25.306;2024-01-07T01:04:21;3.35;;;2.47;;
67715;SDS011;54508;43.238;25.306;2024-01-07T01:06:47;3.33;;;2.50;;
67715;SDS011;54508;43.238;25.306;2024-01-07T01:09:12;3.13;;;2.83;;
67715;SDS011;54508;43.238;25.306;2024-01-07T01:11:38;3.47;;;2.30;;
67715;SDS011;54508;43.238;25.306;2024-01-07T01:14:03;3.60;;;2.40;;
67715;SDS011;54508;43.238;25.306;2024-01-07T01:16:28;3.70;;;2.87;;
67715;SDS011;54508;43.238;25.306;2024-01-07T01:18:54;3.20;;;2.23;;
67715;SDS011;54508;43.238;25.306;2024-01-07T01:21:19;3.93;;;2.70;;
67715;SDS011;54508;43.238;25.306;2024-01-07T01:23:46;4.80;;;2.23;;
67715;SDS011;54508;43.238;25.306;2024-01-07T01:26:11;3.05;;;2.20;;
67715;SDS011;54508;43.238;25.306;2024-01-07T01:28:37;3.40;;;2.33;;
67715;SDS011;54508;43.238;25.306;2024-01-07T01:31:02;3.92;;;2.80;;
67715;SDS011;54508;43.238;25.306;2024-01-07T01:33:28;2.90;;;2.33;;
67715;SDS011;54508;43.238;25.306;2024-01-07T01:35:53;3.07;;;2.57;;
67715;SDS011;54508;43.238;25.306;2024-01-07T01:38:19;2.88;;;2.42;;
67715;SDS011;54508;43.238;25.306;2024-01-07T01:40:50;3.77;;;2.47;;
67715;SDS011;54508;43.238;25.306;2024-01-07T01:43:22;4.57;;;2.88;;
67715;SDS011;54508;43.238;25.306;2024-01-07T01:45:48;4.07;;;2.47;;
67715;SDS011;54508;43.238;25.306;2024-01-07T01:48:13;4.05;;;2.53;;
67715;SDS011;54508;43.238;25.306;2024-01-07T01:50:39;3.72;;;2.42;;
67715;SDS011;54508;43.238;25.306;2024-01-07T01:53:04;3.53;;;2.83;;
67715;SDS011;54508;43.238;25.306;2024-01-07T01:55:30;2.80;;;2.23;;
67715;SDS011;54508;43.238;25.306;2024-01-07T01:57:55;3.73;;;2.60;;
67715;SDS011;54508;43.238;25.306;2024-01-07T02:00:21;3.45;;;2.60;;
67715;SDS011;54508;43.238;25.306;2024-01-07T02:02:47;3.70;;;2.60;;
67715;SDS011;54508;43.238;25.306;2024-01-07T02:05:12;4.20;;;2.60;;
67715;SDS011;54508;43.238;25.306;2024-01-07T02:07:39;3.45;;;2.40;;
67715;SDS011;54508;43.238;25.306;2024-01-07T02:10:04;3.10;;;2.50;;
67715;SDS011;54508;43.238;25.306;2024-01-07T02:12:30;3.67;;;2.37;;
67715;SDS011;54508;43.238;25.306;2024-01-07T02:14:55;2.88;;;2.40;;
67715;SDS011;54508;43.238;25.306;2024-01-07T02:17:21;3.73;;;2.33;;
67715;SDS011;54508;43.238;25.306;2024-01-07T02:19:46;3.37;;;2.50;;
67715;SDS011;54508;43.238;25.306;2024-01-07T02:22:11;3.47;;;2.57;;
67715;SDS011;54508;43.238;25.306;2024-01-07T02:24:37;2.50;;;2.20;;
67715;SDS011;54508;43.238;25.306;2024-01-07T02:27:02;3.33;;;2.60;;
67715;SDS011;54508;43.238;25.306;2024-01-07T02:29:28;3.53;;;2.65;;
67715;SDS011;54508;43.238;25.306;2024-01-07T02:31:54;3.08;;;2.30;;
67715;SDS011;54508;43.238;25.306;2024-01-07T02:34:19;2.83;;;2.42;;
67715;SDS011;54508;43.238;25.306;2024-01-07T02:36:45;2.77;;;2.40;;
67715;SDS011;54508;43.238;25.306;2024-01-07T02:39:10;3.10;;;2.53;;
67715;SDS011;54508;43.238;25.306;2024-01-07T02:41:36;3.63;;;3.03;;
67715;SDS011;54508;43.238;25.306;2024-01-07T02:44:01;3.70;;;2.43;;
67715;SDS011;54508;43.238;25.306;2024-01-07T02:46:26;2.95;;;2.70;;
67715;SDS011;54508;43.238;25.306;2024-01-07T02:48:52;3.23;;;2.47;;
67715;SDS011;54508;43.238;25.306;2024-01-07T02:51:17;3.30;;;2.57;;
67715;SDS011;54508;43.238;25.306;2024-01-07T02:53:43;3.43;;;2.40;;
67715;SDS011;54508;43.238;25.306;2024-01-07T02:56:08;4.03;;;2.77;;
67715;SDS011;54508;43.238;25.306;2024-01-07T02:58:33;2.88;;;2.47;;
67715;SDS011;54508;43.238;25.306;2024-01-07T03:00:59;3.53;;;2.27;;
67715;SDS011;54508;43.238;25.306;2024-01-07T03:03:25;2.95;;;2.35;;
67715;SDS011;54508;43.238;25.306;2024-01-07T03:05:50;3.13;;;2.43;;
67715;SDS011;54508;43.238;25.306;2024-01-07T03:08:16;2.77;;;2.57;;
67715;SDS011;54508;43.238;25.306;2024-01-07T03:10:41;2.70;;;2.50;;
67715;SDS011;54508;43.238;25.306;2024-01-07T03:13:07;2.60;;;2.40;;
67715;SDS011;54508;43.238;25.306;2024-01-07T03:15:32;2.50;;;2.30;;
67715;SDS011;54508;43.238;25.306;2024-01-07T03:17:57;3.77;;;2.47;;
67715;SDS011;54508;43.238;25.306;2024-01-07T03:20:23;3.23;;;2.50;;
67715;SDS011;54508;43.238;25.306;2024-01-07T03:22:48;2.83;;;2.23;;
67715;SDS011;54508;43.238;25.306;2024-01-07T03:25:13;4.30;;;2.60;;
67715;SDS011;54508;43.238;25.306;2024-01-07T03:27:39;3.38;;;2.33;;
67715;SDS011;54508;43.238;25.306;2024-01-07T03:30:05;3.30;;;2.20;;
67715;SDS011;54508;43.238;25.306;2024-01-07T03:32:30;2.85;;;2.13;;
67715;SDS011;54508;43.238;25.306;2024-01-07T03:34:56;2.38;;;1.88;;
67715;SDS011;54508;43.238;25.306;2024-01-07T03:37:21;2.73;;;2.27;;
67715;SDS011;54508;43.238;25.306;2024-01-07T03:39:47;3.17;;;2.30;;
67715;SDS011;54508;43.238;25.306;2024-01-07T03:42:12;3.40;;;2.00;;
67715;SDS011;54508;43.238;25.306;2024-01-07T03:44:38;2.10;;;1.90;;
67715;SDS011;54508;43.238;25.306;2024-01-07T03:47:04;2.80;;;2.00;;
67715;SDS011;54508;43.238;25.306;2024-01-07T03:49:30;2.20;;;1.87;;
67715;SDS011;54508;43.238;25.306;2024-01-07T03:51:56;2.20;;;2.00;;
67715;SDS011;54508;43.238;25.306;2024-01-07T03:54:21;3.03;;;1.97;;
67715;SDS011;54508;43.238;25.306;2024-01-07T03:56:46;2.20;;;2.00;;
67715;SDS011;54508;43.238;25.306;2024-01-07T03:59:12;2.60;;;1.80;;
67715;SDS011;54508;43.238;25.306;2024-01-07T04:01:37;2.37;;;2.10;;
67715;SDS011;54508;43.238;25.306;2024-01-07T04:04:03;2.47;;;1.90;;
67715;SDS011;54508;43.238;25.306;2024-01-07T04:06:28;3.45;;;2.00;;
67715;SDS011;54508;43.238;25.306;2024-01-07T04:08:54;2.70;;;2.00;;
67715;SDS011;54508;43.238;25.306;2024-01-07T04:11:19;2.70;;;1.80;;
67715;SDS011;54508;43.238;25.306;2024-01-07T04:13:46;2.85;;;2.10;;
67715;SDS011;54508;43.238;25.306;2024-01-07T04:16:20;2.57;;;1.80;;
67715;SDS011;54508;43.238;25.306;2024-01-07T04:18:46;2.83;;;1.80;;
67715;SDS011;54508;43.238;25.306;2024-01-07T04:21:12;3.30;;;2.00;;
67715;SDS011;54508;43.238;25.306;2024-01-07T04:23:40;2.00;;;1.80;;
67715;SDS011;54508;43.238;25.306;2024-01-07T04:26:09;2.60;;;1.80;;
67715;SDS011;54508;43.238;25.306;2024-01-07T04:28:34;3.00;;;1.98;;
67715;SDS011;54508;43.238;25.306;2024-01-07T04:31:00;2.33;;;1.80;;
67715;SDS011;54508;43.238;25.306;2024-01-07T04:33:25;2.45;;;2.22;;
67715;SDS011;54508;43.238;25.306;2024-01-07T04:35:50;1.95;;;1.67;;
67715;SDS011;54508;43.238;25.306;2024-01-07T04:38:16;2.27;;;1.77;;
67715;SDS011;54508;43.238;25.306;2024-01-07T04:40:41;1.90;;;1.70;;
67715;SDS011;54508;43.238;25.306;2024-01-07T04:43:07;3.07;;;1.87;;
67715;SDS011;54508;43.238;25.306;2024-01-07T04:45:32;1.85;;;1.45;;
67715;SDS011;54508;43.238;25.306;2024-01-07T04:47:58;2.53;;;1.90;;
67715;SDS011;54508;43.238;25.306;2024-01-07T04:50:23;2.10;;;1.80;;
67715;SDS011;54508;43.238;25.306;2024-01-07T04:52:48;2.20;;;1.70;;
67715;SDS011;54508;43.238;25.306;2024-01-07T04:55:14;1.73;;;1.47;;
67715;SDS011;54508;43.238;25.306;2024-01-07T04:57:39;2.63;;;1.70;;
67715;SDS011;54508;43.238;25.306;2024-01-07T05:00:05;2.30;;;1.50;;
67715;SDS011;54508;43.238;25.306;2024-01-07T05:02:31;2.42;;;1.63;;
67715;SDS011;54508;43.238;25.306;2024-01-07T05:04:56;2.70;;;1.67;;
67715;SDS011;54508;43.238;25.306;2024-01-07T05:07:22;2.63;;;1.50;;
67715;SDS011;54508;43.238;25.306;2024-01-07T05:09:47;2.20;;;1.73;;
67715;SDS011;54508;43.238;25.306;2024-01-07T05:12:12;2.30;;;1.43;;
67715;SDS011;54508;43.238;25.306;2024-01-07T05:14:38;2.13;;;1.50;;
67715;SDS011;54508;43.238;25.306;2024-01-07T05:17:03;2.20;;;1.50;;
67715;SDS011;54508;43.238;25.306;2024-01-07T05:19:29;1.63;;;1.30;;
67715;SDS011;54508;43.238;25.306;2024-01-07T05:21:54;1.88;;;1.58;;
67715;SDS011;54508;43.238;25.306;2024-01-07T05:24:20;2.28;;;1.80;;
67715;SDS011;54508;43.238;25.306;2024-01-07T05:26:46;2.07;;;1.33;;
67715;SDS011;54508;43.238;25.306;2024-01-07T05:29:11;1.83;;;1.30;;
67715;SDS011;54508;43.238;25.306;2024-01-07T05:31:37;1.87;;;1.43;;
67715;SDS011;54508;43.238;25.306;2024-01-07T05:34:06;1.95;;;1.40;;
67715;SDS011;54508;43.238;25.306;2024-01-07T05:36:31;2.67;;;1.50;;
67715;SDS011;54508;43.238;25.306;2024-01-07T05:38:56;2.60;;;1.40;;
67715;SDS011;54508;43.238;25.306;2024-01-07T05:41:22;1.80;;;1.50;;
67715;SDS011;54508;43.238;25.306;2024-01-07T05:43:47;3.43;;;1.70;;
67715;SDS011;54508;43.238;25.306;2024-01-07T05:46:13;2.20;;;1.53;;
67715;SDS011;54508;43.238;25.306;2024-01-07T05:48:45;1.50;;;1.20;;
67715;SDS011;54508;43.238;25.306;2024-01-07T05:51:11;2.00;;;1.33;;
67715;SDS011;54508;43.238;25.306;2024-01-07T05:53:37;2.05;;;1.52;;
67715;SDS011;54508;43.238;25.306;2024-01-07T05:56:03;2.13;;;1.40;;
67715;SDS011;54508;43.238;25.306;2024-01-07T05:58:29;2.72;;;1.40;;
67715;SDS011;54508;43.238;25.306;2024-01-07T06:00:54;1.63;;;1.47;;
67715;SDS011;54508;43.238;25.306;2024-01-07T06:03:20;1.67;;;1.30;;
67715;SDS011;54508;43.238;25.306;2024-01-07T06:05:45;1.88;;;1.48;;
67715;SDS011;54508;43.238;25.306;2024-01-07T06:08:11;4.03;;;1.80;;
67715;SDS011;54508;43.238;25.306;2024-01-07T06:10:36;1.87;;;1.43;;
67715;SDS011;54508;43.238;25.306;2024-01-07T06:13:01;1.83;;;1.60;;
67715;SDS011;54508;43.238;25.306;2024-01-07T06:15:28;2.20;;;1.40;;
67715;SDS011;54508;43.238;25.306;2024-01-07T06:17:53;1.98;;;1.60;;
67715;SDS011;54508;43.238;25.306;2024-01-07T06:20:19;1.83;;;1.20;;
67715;SDS011;54508;43.238;25.306;2024-01-07T06:22:44;2.17;;;1.73;;
67715;SDS011;54508;43.238;25.306;2024-01-07T06:25:10;2.23;;;1.80;;
67715;SDS011;54508;43.238;25.306;2024-01-07T06:27:35;1.60;;;1.50;;
67715;SDS011;54508;43.238;25.306;2024-01-07T06:30:01;1.88;;;1.33;;
67715;SDS011;54508;43.238;25.306;2024-01-07T06:32:26;1.30;;;1.20;;
67715;SDS011;54508;43.238;25.306;2024-01-07T06:34:52;2.10;;;1.40;;
67715;SDS011;54508;43.238;25.306;2024-01-07T06:37:17;2.08;;;1.40;;
67715;SDS011;54508;43.238;25.306;2024-01-07T06:39:43;2.87;;;1.43;;
67715;SDS011;54508;43.238;25.306;2024-01-07T06:42:08;2.00;;;1.57;;
67715;SDS011;54508;43.238;25.306;2024-01-07T06:44:33;1.90;;;1.30;;
67715;SDS011;54508;43.238;25.306;2024-01-07T06:46:59;1.57;;;1.40;;
67715;SDS011;54508;43.238;25.306;2024-01-07T06:49:24;2.85;;;1.40;;
67715;SDS011;54508;43.238;25.306;2024-01-07T06:51:50;1.50;;;1.30;;
67715;SDS011;54508;43.238;25.306;2024-01-07T06:54:15;1.73;;;1.23;;
67715;SDS011;54508;43.238;25.306;2024-01-07T06:56:40;1.57;;;1.20;;
67715;SDS011;54508;43.238;25.306;2024-01-07T06:59:06;1.97;;;1.67;;
67715;SDS011;54508;43.238;25.306;2024-01-07T07:01:32;2.13;;;1.52;;
67715;SDS011;54508;43.238;25.306;2024-01-07T07:03:57;1.70;;;1.33;;
67715;SDS011;54508;43.238;25.306;2024-01-07T07:06:23;2.58;;;1.70;;
67715;SDS011;54508;43.238;25.306;2024-01-07T07:08:49;2.10;;;1.40;;
67715;SDS011;54508;43.238;25.306;2024-01-07T07:11:15;2.33;;;1.60;;
67715;SDS011;54508;43.238;25.306;2024-01-07T07:13:41;2.10;;;1.60;;
67715;SDS011;54508;43.238;25.306;2024-01-07T07:16:06;2.25;;;1.40;;
67715;SDS011;54508;43.238;25.306;2024-01-07T07:18:32;2.20;;;1.53;;
67715;SDS011;54508;43.238;25.306;2024-01-07T07:20:58;2.10;;;1.42;;
67715;SDS011;54508;43.238;25.306;2024-01-07T07:23:23;2.10;;;1.70;;
67715;SDS011;54508;43.238;25.306;2024-01-07T07:25:51;3.20;;;1.55;;
67715;SDS011;54508;43.238;25.306;2024-01-07T07:28:16;2.40;;;1.53;;
67715;SDS011;54508;43.238;25.306;2024-01-07T07:30:42;1.58;;;1.40;;
67715;SDS011;54508;43.238;25.306;2024-01-07T07:33:07;2.40;;;1.60;;
67715;SDS011;54508;43.238;25.306;2024-01-07T07:35:33;2.60;;;1.50;;
67715;SDS011;54508;43.238;25.306;2024-01-07T07:37:58;2.57;;;1.80;;
67715;SDS011;54508;43.238;25.306;2024-01-07T07:40:24;2.60;;;1.50;;
67715;SDS011;54508;43.238;25.306;2024-01-07T07:42:50;1.63;;;1.35;;
67715;SDS011;54508;43.238;25.306;2024-01-07T07:45:16;1.70;;;1.30;;
67715;SDS011;54508;43.238;25.306;2024-01-07T07:47:41;2.15;;;1.50;;
67715;SDS011;54508;43.238;25.306;2024-01-07T07:50:09;2.03;;;1.55;;
67715;SDS011;54508;43.238;25.306;2024-01-07T07:52:35;4.57;;;1.50;;
67715;SDS011;54508;43.238;25.306;2024-01-07T07:55:01;2.00;;;1.50;;
67715;SDS011;54508;43.238;25.306;2024-01-07T07:57:26;1.73;;;1.37;;
67715;SDS011;54508;43.238;25.306;2024-01-07T07:59:52;2.00;;;1.40;;
67715;SDS011;54508;43.238;25.306;2024-01-07T08:02:18;1.42;;;1.23;;
67715;SDS011;54508;43.238;25.306;2024-01-07T08:04:43;1.67;;;1.55;;
67715;SDS011;54508;43.238;25.306;2024-01-07T08:07:09;2.33;;;1.50;;
67715;SDS011;54508;43.238;25.306;2024-01-07T08:09:34;2.47;;;1.40;;
67715;SDS011;54508;43.238;25.306;2024-01-07T08:12:06;1.93;;;1.50;;
67715;SDS011;54508;43.238;25.306;2024-01-07T08:14:32;1.90;;;1.20;;
67715;SDS011;54508;43.238;25.306;2024-01-07T08:16:58;2.22;;;1.52;;
67715;SDS011;54508;43.238;25.306;2024-01-07T08:19:23;1.60;;;1.50;;
67715;SDS011;54508;43.238;25.306;2024-01-07T08:21:49;2.17;;;1.55;;
67715;SDS011;54508;43.238;25.306;2024-01-07T08:24:14;2.40;;;1.70;;
67715;SDS011;54508;43.238;25.306;2024-01-07T08:26:39;1.70;;;1.20;;
67715;SDS011;54508;43.238;25.306;2024-01-07T08:29:05;1.85;;;1.17;;
67715;SDS011;54508;43.238;25.306;2024-01-07T08:31:31;1.77;;;1.33;;
67715;SDS011;54508;43.238;25.306;2024-01-07T08:33:57;1.58;;;1.10;;
67715;SDS011;54508;43.238;25.306;2024-01-07T08:36:22;2.87;;;1.27;;
67715;SDS011;54508;43.238;25.306;2024-01-07T08:38:48;1.93;;;1.57;;
67715;SDS011;54508;43.238;25.306;2024-01-07T08:41:16;2.03;;;1.40;;
67715;SDS011;54508;43.238;25.306;2024-01-07T08:43:42;1.50;;;1.37;;
67715;SDS011;54508;43.238;25.306;2024-01-07T08:46:09;2.78;;;1.75;;
67715;SDS011;54508;43.238;25.306;2024-01-07T08:48:34;1.73;;;1.60;;
67715;SDS011;54508;43.238;25.306;2024-01-07T08:50:59;2.60;;;1.95;;
67715;SDS011;54508;43.238;25.306;2024-01-07T08:53:25;2.85;;;1.77;;
67715;SDS011;54508;43.238;25.306;2024-01-07T08:55:50;2.97;;;1.93;;
67715;SDS011;54508;43.238;25.306;2024-01-07T08:58:16;4.50;;;2.50;;
67715;SDS011;54508;43.238;25.306;2024-01-07T09:00:42;3.30;;;2.30;;
67715;SDS011;54508;43.238;25.306;2024-01-07T09:03:08;3.53;;;2.95;;
67715;SDS011;54508;43.238;25.306;2024-01-07T09:05:33;3.67;;;3.00;;
67715;SDS011;54508;43.238;25.306;2024-01-07T09:07:59;3.13;;;2.50;;
67715;SDS011;54508;43.238;25.306;2024-01-07T09:10:25;3.58;;;2.97;;
67715;SDS011;54508;43.238;25.306;2024-01-07T09:12:51;5.28;;;3.25;;
67715;SDS011;54508;43.238;25.306;2024-01-07T09:15:18;5.05;;;3.70;;
67715;SDS011;54508;43.238;25.306;2024-01-07T09:17:44;3.88;;;3.30;;
67715;SDS011;54508;43.238;25.306;2024-01-07T09:20:09;4.57;;;3.57;;
67715;SDS011;54508;43.238;25.306;2024-01-07T09:22:35;4.72;;;3.90;;
67715;SDS011;54508;43.238;25.306;2024-01-07T09:25:04;5.38;;;4.05;;
67715;SDS011;54508;43.238;25.306;2024-01-07T09:27:30;5.35;;;4.25;;
67715;SDS011;54508;43.238;25.306;2024-01-07T09:29:57;4.03;;;3.63;;
67715;SDS011;54508;43.238;25.306;2024-01-07T09:32:22;4.80;;;4.00;;
67715;SDS011;54508;43.238;25.306;2024-01-07T09:34:47;5.90;;;4.10;;
67715;SDS011;54508;43.238;25.306;2024-01-07T09:37:13;5.10;;;4.07;;
67715;SDS011;54508;43.238;25.306;2024-01-07T09:39:42;4.88;;;4.03;;
67715;SDS011;54508;43.238;25.306;2024-01-07T09:42:09;5.43;;;4.27;;
67715;SDS011;54508;43.238;25.306;2024-01-07T09:44:39;5.95;;;4.50;;
67715;SDS011;54508;43.238;25.306;2024-01-07T09:47:14;5.35;;;4.78;;
67715;SDS011;54508;43.238;25.306;2024-01-07T09:49:40;5.78;;;4.75;;
67715;SDS011;54508;43.238;25.306;2024-01-07T09:52:07;6.00;;;4.90;;
67715;SDS011;54508;43.238;25.306;2024-01-07T09:54:33;7.32;;;4.72;;
67715;SDS011;54508;43.238;25.306;2024-01-07T09:57:02;5.90;;;4.68;;
67715;SDS011;54508;43.238;25.306;2024-01-07T09:59:29;5.47;;;4.90;;
67715;SDS011;54508;43.238;25.306;2024-01-07T10:01:55;5.88;;;4.72;;
67715;SDS011;54508;43.238;25.306;2024-01-07T10:04:21;5.97;;;5.03;;
67715;SDS011;54508;43.238;25.306;2024-01-07T10:06:46;6.40;;;5.10;;
67715;SDS011;54508;43.238;25.306;2024-01-07T10:09:13;5.22;;;4.68;;
67715;SDS011;54508;43.238;25.306;2024-01-07T10:11:40;6.35;;;5.00;;
67715;SDS011;54508;43.238;25.306;2024-01-07T10:14:05;6.00;;;4.95;;
67715;SDS011;54508;43.238;25.306;2024-01-07T10:16:31;7.40;;;5.20;;
67715;SDS011;54508;43.238;25.306;2024-01-07T10:18:58;5.90;;;5.18;;
67715;SDS011;54508;43.238;25.306;2024-01-07T10:21:23;6.65;;;5.30;;
67715;SDS011;54508;43.238;25.306;2024-01-07T10:23:48;7.47;;;5.57;;
67715;SDS011;54508;43.238;25.306;2024-01-07T10:26:14;6.53;;;5.23;;
67715;SDS011;54508;43.238;25.306;2024-01-07T10:28:39;6.37;;;5.53;;
67715;SDS011;54508;43.238;25.306;2024-01-07T10:31:05;7.97;;;5.72;;
67715;SDS011;54508;43.238;25.306;2024-01-07T10:33:31;7.07;;;5.80;;
67715;SDS011;54508;43.238;25.306;2024-01-07T10:36:01;6.00;;;5.35;;
67715;SDS011;54508;43.238;25.306;2024-01-07T10:38:29;6.95;;;5.47;;
67715;SDS011;54508;43.238;25.306;2024-01-07T10:40:54;8.50;;;5.63;;
67715;SDS011;54508;43.238;25.306;2024-01-07T10:43:20;6.10;;;5.50;;
67715;SDS011;54508;43.238;25.306;2024-01-07T10:45:47;6.85;;;6.07;;
67715;SDS011;54508;43.238;25.306;2024-01-07T10:48:18;7.65;;;6.03;;
67715;SDS011;54508;43.238;25.306;2024-01-07T10:50:47;7.53;;;5.80;;
67715;SDS011;54508;43.238;25.306;2024-01-07T10:53:17;6.13;;;5.10;;
67715;SDS011;54508;43.238;25.306;2024-01-07T10:55:44;6.95;;;5.75;;
67715;SDS011;54508;43.238;25.306;2024-01-07T10:58:18;10.10;;;6.15;;
67715;SDS011;54508;43.238;25.306;2024-01-07T11:00:44;6.57;;;5.38;;
67715;SDS011;54508;43.238;25.306;2024-01-07T11:03:11;6.93;;;5.67;;
67715;SDS011;54508;43.238;25.306;2024-01-07T11:05:44;7.10;;;5.90;;
67715;SDS011;54508;43.238;25.306;2024-01-07T11:10:50;7.10;;;5.37;;
67715;SDS011;54508;43.238;25.306;2024-01-07T11:13:31;6.55;;;5.43;;
67715;SDS011;54508;43.238;25.306;2024-01-07T11:16:04;6.47;;;5.38;;
67715;SDS011;54508;43.238;25.306;2024-01-07T11:18:30;6.22;;;5.60;;
67715;SDS011;54508;43.238;25.306;2024-01-07T11:21:01;7.32;;;5.47;;
67715;SDS011;54508;43.238;25.306;2024-01-07T11:23:29;7.80;;;5.40;;
67715;SDS011;54508;43.238;25.306;2024-01-07T11:25:59;5.97;;;5.05;;
67715;SDS011;54508;43.238;25.306;2024-01-07T11:31:10;6.18;;;5.20;;
67715;SDS011;54508;43.238;25.306;2024-01-07T11:33:38;6.13;;;5.03;;
67715;SDS011;54508;43.238;25.306;2024-01-07T11:36:05;5.60;;;5.00;;
67715;SDS011;54508;43.238;25.306;2024-01-07T11:38:31;6.68;;;5.60;;
67715;SDS011;54508;43.238;25.306;2024-01-07T11:40:56;6.37;;;5.23;;
67715;SDS011;54508;43.238;25.306;2024-01-07T11:43:22;6.40;;;5.22;;
67715;SDS011;54508;43.238;25.306;2024-01-07T11:45:50;6.47;;;5.03;;
67715;SDS011;54508;43.238;25.306;2024-01-07T11:48:17;6.80;;;5.15;;
67715;SDS011;54508;43.238;25.306;2024-01-07T11:50:45;6.45;;;5.20;;
67715;SDS011;54508;43.238;25.306;2024-01-07T11:53:11;6.17;;;4.80;;
67715;SDS011;54508;43.238;25.306;2024-01-07T11:55:37;5.60;;;5.00;;
67715;SDS011;54508;43.238;25.306;2024-01-07T11:58:03;5.32;;;4.60;;
67715;SDS011;54508;43.238;25.306;2024-01-07T12:00:32;5.63;;;4.60;;
67715;SDS011;54508;43.238;25.306;2024-01-07T12:03:04;6.18;;;4.97;;
67715;SDS011;54508;43.238;25.306;2024-01-07T12:05:29;6.33;;;5.13;;
67715;SDS011;54508;43.238;25.306;2024-01-07T12:07:55;5.07;;;4.57;;
67715;SDS011;54508;43.238;25.306;2024-01-07T12:10:22;5.90;;;4.45;;
67715;SDS011;54508;43.238;25.306;2024-01-07T12:12:48;5.07;;;4.47;;
67715;SDS011;54508;43.238;25.306;2024-01-07T12:15:15;5.30;;;4.43;;
67715;SDS011;54508;43.238;25.306;2024-01-07T12:17:41;4.68;;;4.15;;
67715;SDS011;54508;43.238;25.306;2024-01-07T12:20:07;5.60;;;4.43;;
67715;SDS011;54508;43.238;25.306;2024-01-07T12:22:36;4.45;;;3.92;;
67715;SDS011;54508;43.238;25.306;2024-01-07T12:25:05;5.25;;;4.50;;
67715;SDS011;54508;43.238;25.306;2024-01-07T12:27:31;5.20;;;4.70;;
67715;SDS011;54508;43.238;25.306;2024-01-07T12:29:58;4.88;;;4.38;;
67715;SDS011;54508;43.238;25.306;2024-01-07T12:32:27;5.22;;;4.72;;
67715;SDS011;54508;43.238;25.306;2024-01-07T12:34:53;5.00;;;4.20;;
67715;SDS011;54508;43.238;25.306;2024-01-07T12:37:22;5.22;;;3.95;;
67715;SDS011;54508;43.238;25.306;2024-01-07T12:39:47;5.13;;;4.60;;
67715;SDS011;54508;43.238;25.306;2024-01-07T12:42:13;5.38;;;4.45;;
67715;SDS011;54508;43.238;25.306;2024-01-07T12:44:39;5.53;;;4.33;;
67715;SDS011;54508;43.238;25.306;2024-01-07T12:47:04;5.28;;;4.50;;
67715;SDS011;54508;43.238;25.306;2024-01-07T12:49:30;5.33;;;4.00;;
67715;SDS011;54508;43.238;25.306;2024-01-07T12:51:56;4.88;;;4.03;;
67715;SDS011;54508;43.238;25.306;2024-01-07T12:54:21;5.28;;;4.38;;
67715;SDS011;54508;43.238;25.306;2024-01-07T12:56:48;5.18;;;4.20;;
67715;SDS011;54508;43.238;25.306;2024-01-07T12:59:14;5.77;;;4.63;;
67715;SDS011;54508;43.238;25.306;2024-01-07T13:01:39;5.60;;;4.47;;
67715;SDS011;54508;43.238;25.306;2024-01-07T13:04:04;5.30;;;4.40;;
67715;SDS011;54508;43.238;25.306;2024-01-07T13:06:30;4.83;;;4.00;;
67715;SDS011;54508;43.238;25.306;2024-01-07T13:08:55;5.93;;;4.13;;
67715;SDS011;54508;43.238;25.306;2024-01-07T13:11:21;4.97;;;4.03;;
67715;SDS011;54508;43.238;25.306;2024-01-07T13:13:46;5.15;;;4.05;;
67715;SDS011;54508;43.238;25.306;2024-01-07T13:16:12;5.13;;;4.10;;
67715;SDS011;54508;43.238;25.306;2024-01-07T13:18:37;6.07;;;4.03;;
67715;SDS011;54508;43.238;25.306;2024-01-07T13:21:03;4.53;;;3.73;;
67715;SDS011;54508;43.238;25.306;2024-01-07T13:23:29;5.13;;;4.10;;
67715;SDS011;54508;43.238;25.306;2024-01-07T13:25:54;5.63;;;3.80;;
67715;SDS011;54508;43.238;25.306;2024-01-07T13:28:21;5.32;;;3.90;;
67715;SDS011;54508;43.238;25.306;2024-01-07T13:30:46;4.47;;;4.03;;
67715;SDS011;54508;43.238;25.306;2024-01-07T13:33:12;4.13;;;3.70;;
67715;SDS011;54508;43.238;25.306;2024-01-07T13:35:37;4.53;;;3.57;;
67715;SDS011;54508;43.238;25.306;2024-01-07T13:38:02;4.23;;;3.80;;
67715;SDS011;54508;43.238;25.306;2024-01-07T13:40:28;4.33;;;3.60;;
67715;SDS011;54508;43.238;25.306;2024-01-07T13:42:53;6.25;;;3.72;;
67715;SDS011;54508;43.238;25.306;2024-01-07T13:45:19;4.50;;;3.90;;
67715;SDS011;54508;43.238;25.306;2024-01-07T13:47:48;6.57;;;4.00;;
67715;SDS011;54508;43.238;25.306;2024-01-07T13:50:13;5.40;;;4.10;;
67715;SDS011;54508;43.238;25.306;2024-01-07T13:52:39;4.50;;;3.63;;
67715;SDS011;54508;43.238;25.306;2024-01-07T13:55:06;5.13;;;4.03;;
67715;SDS011;54508;43.238;25.306;2024-01-07T13:57:34;3.90;;;3.38;;
67715;SDS011;54508;43.238;25.306;2024-01-07T14:00:00;5.20;;;4.10;;
67715;SDS011;54508;43.238;25.306;2024-01-07T14:02:28;4.38;;;3.60;;
67715;SDS011;54508;43.238;25.306;2024-01-07T14:04:53;5.38;;;4.07;;
67715;SDS011;54508;43.238;25.306;2024-01-07T14:07:20;5.93;;;4.67;;
67715;SDS011;54508;43.238;25.306;2024-01-07T14:09:46;5.15;;;3.92;;
67715;SDS011;54508;43.238;25.306;2024-01-07T14:12:11;5.37;;;4.17;;
67715;SDS011;54508;43.238;25.306;2024-01-07T14:14:37;5.03;;;3.90;;
67715;SDS011;54508;43.238;25.306;2024-01-07T14:17:02;5.53;;;4.10;;
67715;SDS011;54508;43.238;25.306;2024-01-07T14:19:28;6.00;;;4.30;;
67715;SDS011;54508;43.238;25.306;2024-01-07T14:21:53;4.30;;;3.83;;
67715;SDS011;54508;43.238;25.306;2024-01-07T14:24:18;5.43;;;3.80;;
67715;SDS011;54508;43.238;25.306;2024-01-07T14:26:44;5.43;;;4.17;;
67715;SDS011;54508;43.238;25.306;2024-01-07T14:29:09;6.17;;;4.33;;
67715;SDS011;54508;43.238;25.306;2024-01-07T14:31:35;5.55;;;4.15;;